createdAt,value
2022-09-29T00:00:57.855Z,991.72
2022-09-29T00:01:57.842Z,991.73
2022-09-29T00:02:57.831Z,991.72
2022-09-29T00:03:57.747Z,991.70
2022-09-29T00:04:57.706Z,991.73
2022-09-29T00:05:57.710Z,991.74
2022-09-29T00:06:57.641Z,991.74
2022-09-29T00:07:57.601Z,991.70
2022-09-29T00:08:57.564Z,991.70
2022-09-29T00:09:57.531Z,991.67
2022-09-29T00:10:57.490Z,991.69
2022-09-29T00:11:57.456Z,991.68
2022-09-29T00:12:57.423Z,991.67
2022-09-29T00:13:57.392Z,991.64
2022-09-29T00:14:57.356Z,991.68
2022-09-29T00:15:57.379Z,991.71
2022-09-29T00:16:57.276Z,991.69
2022-09-29T00:18:13.076Z,991.71
2022-09-29T00:18:57.209Z,991.68
2022-09-29T00:19:57.169Z,991.69
2022-09-29T00:20:57.129Z,991.68
2022-09-29T00:21:57.097Z,991.65
2022-09-29T00:22:57.061Z,991.66
2022-09-29T00:23:57.024Z,991.66
2022-09-29T00:24:56.986Z,991.68
2022-09-29T00:25:56.965Z,991.66
2022-09-29T00:26:56.913Z,991.63
2022-09-29T00:27:56.877Z,991.67
2022-09-29T00:28:56.840Z,991.63
2022-09-29T00:29:56.812Z,991.56
2022-09-29T00:30:56.850Z,991.60
2022-09-29T00:31:56.798Z,991.58
2022-09-29T00:32:56.707Z,991.62
2022-09-29T00:33:56.662Z,991.58
2022-09-29T00:34:56.637Z,991.58
2022-09-29T00:35:56.591Z,991.59
2022-09-29T00:36:56.555Z,991.56
2022-09-29T00:37:56.518Z,991.57
2022-09-29T00:38:56.484Z,991.59
2022-09-29T00:39:56.449Z,991.54
2022-09-29T00:40:56.489Z,991.57
2022-09-29T00:41:56.375Z,991.56
2022-09-29T00:42:56.338Z,991.57
2022-09-29T00:43:56.302Z,991.56
2022-09-29T00:44:56.263Z,991.59
2022-09-29T00:45:56.272Z,991.57
2022-09-29T00:46:56.202Z,991.58
2022-09-29T00:47:56.156Z,991.55
2022-09-29T00:48:56.120Z,991.56
2022-09-29T00:49:56.082Z,991.59
2022-09-29T00:50:56.048Z,991.61
2022-09-29T00:51:56.007Z,991.61
2022-09-29T00:52:55.976Z,991.61
2022-09-29T00:53:55.935Z,991.62
2022-09-29T00:54:55.904Z,991.62
2022-09-29T00:55:55.867Z,991.63
2022-09-29T00:56:55.829Z,991.64
2022-09-29T00:57:55.791Z,991.59
2022-09-29T00:58:55.756Z,991.58
2022-09-29T00:59:55.721Z,991.61
2022-09-29T01:00:55.710Z,991.59
2022-09-29T01:01:55.723Z,991.62
2022-09-29T01:02:55.613Z,991.60
2022-09-29T01:03:55.576Z,991.61
2022-09-29T01:04:55.542Z,991.59
2022-09-29T01:05:55.503Z,991.60
2022-09-29T01:06:55.477Z,991.61
2022-09-29T01:07:55.430Z,991.63
2022-09-29T01:08:55.392Z,991.64
2022-09-29T01:09:55.364Z,991.63
2022-09-29T01:10:55.321Z,991.63
2022-09-29T01:11:55.585Z,991.62
2022-09-29T01:12:55.248Z,991.61
2022-09-29T01:13:55.213Z,991.66
2022-09-29T01:14:55.175Z,991.62
2022-09-29T01:15:56.958Z,991.62
2022-09-29T01:16:55.129Z,991.61
2022-09-29T01:17:55.064Z,991.61
2022-09-29T01:18:55.033Z,991.62
2022-09-29T01:19:54.997Z,991.62
2022-09-29T01:20:54.955Z,991.63
2022-09-29T01:21:54.921Z,991.59
2022-09-29T01:22:54.883Z,991.60
2022-09-29T01:23:54.890Z,991.62
2022-09-29T01:24:54.813Z,991.59
2022-09-29T01:25:54.776Z,991.61
2022-09-29T01:26:54.755Z,991.63
2022-09-29T01:27:54.703Z,991.60
2022-09-29T01:28:54.667Z,991.65
2022-09-29T01:29:54.631Z,991.62
2022-09-29T01:30:54.596Z,991.63
2022-09-29T01:31:54.587Z,991.64
2022-09-29T01:32:54.519Z,991.62
2022-09-29T01:33:54.519Z,991.66
2022-09-29T01:34:54.452Z,991.66
2022-09-29T01:35:54.410Z,991.64
2022-09-29T01:36:55.097Z,991.66
2022-09-29T01:37:54.340Z,991.68
2022-09-29T01:38:54.304Z,991.65
2022-09-29T01:39:54.286Z,991.67
2022-09-29T01:40:54.276Z,991.69
2022-09-29T01:41:54.194Z,991.67
2022-09-29T01:42:54.156Z,991.71
2022-09-29T01:43:54.119Z,991.72
2022-09-29T01:44:54.082Z,991.72
2022-09-29T01:45:54.124Z,991.74
2022-09-29T01:46:55.169Z,991.79
2022-09-29T01:47:53.973Z,991.81
2022-09-29T01:48:53.937Z,991.79
2022-09-29T01:49:53.904Z,991.79
2022-09-29T01:50:53.877Z,991.81
2022-09-29T01:51:53.831Z,991.81
2022-09-29T01:52:53.792Z,991.82
2022-09-29T01:53:53.787Z,991.81
2022-09-29T01:54:53.718Z,991.79
2022-09-29T01:55:53.680Z,991.80
2022-09-29T01:56:53.682Z,991.82
2022-09-29T01:57:53.607Z,991.81
2022-09-29T01:58:53.578Z,991.83
2022-09-29T01:59:53.534Z,991.76
2022-09-29T02:00:53.579Z,991.79
2022-09-29T02:01:55.977Z,991.80
2022-09-29T02:02:53.423Z,991.80
2022-09-29T02:03:53.390Z,991.78
2022-09-29T02:04:53.375Z,991.76
2022-09-29T02:05:53.317Z,991.76
2022-09-29T02:06:53.296Z,991.71
2022-09-29T02:07:53.246Z,991.76
2022-09-29T02:08:53.206Z,991.72
2022-09-29T02:09:53.169Z,991.71
2022-09-29T02:10:53.130Z,991.71
2022-09-29T02:11:53.093Z,991.72
2022-09-29T02:12:53.085Z,991.71
2022-09-29T02:13:53.023Z,991.71
2022-09-29T02:14:52.985Z,991.68
2022-09-29T02:15:53.023Z,991.69
2022-09-29T02:16:52.913Z,991.69
2022-09-29T02:17:52.880Z,991.69
2022-09-29T02:18:57.477Z,991.67
2022-09-29T02:19:52.801Z,991.66
2022-09-29T02:20:52.764Z,991.66
2022-09-29T02:21:52.728Z,991.69
2022-09-29T02:22:52.693Z,991.67
2022-09-29T02:23:52.662Z,991.70
2022-09-29T02:24:52.652Z,991.69
2022-09-29T02:25:52.584Z,991.72
2022-09-29T02:26:52.548Z,991.70
2022-09-29T02:27:52.509Z,991.69
2022-09-29T02:28:52.571Z,991.73
2022-09-29T02:29:52.440Z,991.73
2022-09-29T02:30:52.400Z,991.73
2022-09-29T02:31:52.420Z,991.78
2022-09-29T02:32:52.329Z,991.78
2022-09-29T02:33:52.292Z,991.76
2022-09-29T02:34:52.250Z,991.76
2022-09-29T02:35:52.227Z,991.78
2022-09-29T02:36:52.180Z,991.78
2022-09-29T02:37:52.141Z,991.79
2022-09-29T02:38:52.106Z,991.73
2022-09-29T02:39:52.270Z,991.75
2022-09-29T02:40:52.079Z,991.76
2022-09-29T02:41:51.993Z,991.76
2022-09-29T02:42:51.958Z,991.75
2022-09-29T02:43:51.921Z,991.71
2022-09-29T02:44:51.909Z,991.74
2022-09-29T02:45:51.884Z,991.74
2022-09-29T02:46:51.811Z,991.71
2022-09-29T02:47:51.772Z,991.77
2022-09-29T02:48:51.739Z,991.72
2022-09-29T02:49:51.704Z,991.71
2022-09-29T02:50:51.666Z,991.74
2022-09-29T02:51:51.627Z,991.70
2022-09-29T02:52:51.589Z,991.72
2022-09-29T02:53:51.567Z,991.72
2022-09-29T02:54:51.515Z,991.72
2022-09-29T02:55:51.480Z,991.73
2022-09-29T02:56:51.442Z,991.72
2022-09-29T02:57:51.413Z,991.77
2022-09-29T02:58:51.366Z,991.77
2022-09-29T02:59:51.332Z,991.74
2022-09-29T03:00:51.313Z,991.79
2022-09-29T03:01:51.281Z,991.75
2022-09-29T03:02:51.218Z,991.76
2022-09-29T03:03:51.219Z,991.79
2022-09-29T03:04:51.143Z,991.75
2022-09-29T03:05:51.112Z,991.74
2022-09-29T03:06:51.070Z,991.73
2022-09-29T03:07:51.033Z,991.71
2022-09-29T03:08:50.997Z,991.70
2022-09-29T03:09:50.970Z,991.74
2022-09-29T03:10:50.929Z,991.76
2022-09-29T03:11:50.886Z,991.76
2022-09-29T03:12:50.853Z,991.76
2022-09-29T03:13:50.820Z,991.78
2022-09-29T03:14:50.775Z,991.71
2022-09-29T03:15:50.822Z,991.75
2022-09-29T03:16:50.702Z,991.76
2022-09-29T03:17:50.668Z,991.75
2022-09-29T03:18:50.627Z,991.73
2022-09-29T03:19:50.597Z,991.72
2022-09-29T03:20:50.556Z,991.74
2022-09-29T03:21:50.564Z,991.74
2022-09-29T03:22:50.482Z,991.70
2022-09-29T03:23:53.149Z,991.73
2022-09-29T03:24:50.404Z,991.76
2022-09-29T03:25:50.377Z,991.75
2022-09-29T03:26:50.332Z,991.75
2022-09-29T03:27:50.304Z,991.73
2022-09-29T03:28:50.256Z,991.75
2022-09-29T03:29:50.220Z,991.75
2022-09-29T03:30:50.182Z,991.75
2022-09-29T03:31:50.261Z,991.76
2022-09-29T03:32:50.112Z,991.73
2022-09-29T03:33:50.101Z,991.75
2022-09-29T03:34:50.036Z,991.74
2022-09-29T03:35:50.002Z,991.72
2022-09-29T03:36:50.005Z,991.74
2022-09-29T03:37:49.926Z,991.73
2022-09-29T03:38:49.896Z,991.72
2022-09-29T03:39:49.869Z,991.72
2022-09-29T03:40:49.870Z,991.70
2022-09-29T03:41:49.779Z,991.75
2022-09-29T03:42:49.798Z,991.76
2022-09-29T03:43:49.702Z,991.77
2022-09-29T03:44:49.664Z,991.74
2022-09-29T03:45:49.640Z,991.79
2022-09-29T03:46:49.617Z,991.82
2022-09-29T03:47:49.554Z,991.80
2022-09-29T03:48:49.514Z,991.80
2022-09-29T03:49:49.480Z,991.82
2022-09-29T03:50:49.446Z,991.82
2022-09-29T03:51:49.421Z,991.81
2022-09-29T03:52:49.367Z,991.82
2022-09-29T03:53:49.332Z,991.85
2022-09-29T03:54:49.300Z,991.83
2022-09-29T03:55:49.260Z,991.83
2022-09-29T03:56:49.221Z,991.83
2022-09-29T03:57:49.187Z,991.86
2022-09-29T03:58:50.276Z,991.87
2022-09-29T03:59:49.112Z,991.89
2022-09-29T04:00:49.108Z,991.87
2022-09-29T04:01:49.085Z,991.90
2022-09-29T04:02:48.998Z,991.89
2022-09-29T04:03:48.998Z,991.90
2022-09-29T04:04:48.924Z,991.90
2022-09-29T04:05:48.885Z,991.90
2022-09-29T04:06:48.850Z,991.91
2022-09-29T04:07:48.812Z,991.91
2022-09-29T04:08:48.797Z,991.95
2022-09-29T04:09:48.737Z,991.92
2022-09-29T04:10:48.701Z,991.97
2022-09-29T04:11:48.701Z,991.92
2022-09-29T04:12:48.626Z,991.98
2022-09-29T04:13:48.591Z,991.94
2022-09-29T04:14:48.555Z,991.94
2022-09-29T04:15:48.514Z,991.94
2022-09-29T04:16:48.496Z,991.93
2022-09-29T04:17:48.442Z,991.94
2022-09-29T04:18:48.402Z,991.93
2022-09-29T04:19:48.368Z,991.94
2022-09-29T04:20:48.335Z,991.96
2022-09-29T04:21:48.310Z,991.95
2022-09-29T04:22:48.256Z,991.98
2022-09-29T04:23:48.219Z,992.00
2022-09-29T04:24:48.190Z,991.98
2022-09-29T04:25:48.168Z,992.03
2022-09-29T04:26:48.107Z,992.04
2022-09-29T04:27:48.075Z,992.06
2022-09-29T04:28:48.033Z,992.05
2022-09-29T04:29:47.997Z,992.04
2022-09-29T04:30:47.962Z,992.04
2022-09-29T04:31:48.012Z,992.08
2022-09-29T04:32:47.884Z,992.10
2022-09-29T04:33:47.870Z,992.08
2022-09-29T04:34:47.816Z,992.08
2022-09-29T04:35:47.800Z,992.10
2022-09-29T04:36:47.734Z,992.13
2022-09-29T04:37:47.702Z,992.12
2022-09-29T04:38:47.661Z,992.12
2022-09-29T04:39:47.624Z,992.13
2022-09-29T04:40:47.634Z,992.15
2022-09-29T04:41:47.552Z,992.16
2022-09-29T04:42:47.516Z,992.11
2022-09-29T04:43:47.477Z,992.20
2022-09-29T04:44:47.441Z,992.18
2022-09-29T04:45:47.474Z,992.18
2022-09-29T04:46:47.367Z,992.17
2022-09-29T04:47:47.327Z,992.21
2022-09-29T04:48:47.291Z,992.19
2022-09-29T04:49:47.258Z,992.20
2022-09-29T04:50:47.214Z,992.15
2022-09-29T04:51:47.178Z,992.17
2022-09-29T04:52:47.142Z,992.13
2022-09-29T04:53:47.102Z,992.15
2022-09-29T04:54:47.067Z,992.16
2022-09-29T04:55:47.059Z,992.14
2022-09-29T04:56:46.996Z,992.18
2022-09-29T04:57:46.970Z,992.15
2022-09-29T04:58:46.917Z,992.19
2022-09-29T04:59:46.892Z,992.15
2022-09-29T05:00:46.916Z,992.21
2022-09-29T05:01:46.825Z,992.19
2022-09-29T05:02:49.841Z,992.18
2022-09-29T05:03:46.736Z,992.26
2022-09-29T05:04:46.695Z,992.22
2022-09-29T05:05:46.662Z,992.23
2022-09-29T05:06:46.618Z,992.25
2022-09-29T05:07:46.593Z,992.28
2022-09-29T05:08:46.567Z,992.28
2022-09-29T05:09:46.507Z,992.30
2022-09-29T05:10:46.472Z,992.32
2022-09-29T05:11:46.431Z,992.32
2022-09-29T05:12:46.396Z,992.31
2022-09-29T05:13:46.358Z,992.32
2022-09-29T05:14:46.319Z,992.34
2022-09-29T05:15:46.286Z,992.31
2022-09-29T05:16:46.288Z,992.35
2022-09-29T05:17:46.209Z,992.34
2022-09-29T05:18:46.222Z,992.37
2022-09-29T05:19:46.131Z,992.38
2022-09-29T05:21:00.445Z,992.41
2022-09-29T05:21:46.063Z,992.42
2022-09-29T05:22:46.021Z,992.42
2022-09-29T05:23:45.987Z,992.39
2022-09-29T05:24:45.947Z,992.43
2022-09-29T05:25:45.907Z,992.45
2022-09-29T05:26:45.876Z,992.46
2022-09-29T05:27:46.071Z,992.47
2022-09-29T05:28:45.802Z,992.48
2022-09-29T05:29:45.766Z,992.47
2022-09-29T05:30:45.732Z,992.50
2022-09-29T05:31:45.746Z,992.49
2022-09-29T05:32:45.655Z,992.48
2022-09-29T05:33:45.613Z,992.47
2022-09-29T05:34:45.589Z,992.48
2022-09-29T05:35:45.536Z,992.51
2022-09-29T05:36:45.521Z,992.51
2022-09-29T05:37:45.467Z,992.51
2022-09-29T05:38:45.428Z,992.50
2022-09-29T05:39:45.388Z,992.49
2022-09-29T05:40:45.367Z,992.52
2022-09-29T05:41:45.313Z,992.52
2022-09-29T05:42:45.274Z,992.54
2022-09-29T05:43:45.263Z,992.56
2022-09-29T05:44:45.201Z,992.52
2022-09-29T05:45:45.200Z,992.55
2022-09-29T05:46:45.131Z,992.56
2022-09-29T05:47:45.090Z,992.60
2022-09-29T05:48:45.050Z,992.61
2022-09-29T05:49:45.035Z,992.61
2022-09-29T05:50:44.977Z,992.60
2022-09-29T05:51:44.938Z,992.62
2022-09-29T05:52:44.903Z,992.66
2022-09-29T05:53:44.867Z,992.64
2022-09-29T05:54:44.833Z,992.65
2022-09-29T05:55:44.791Z,992.66
2022-09-29T05:56:45.617Z,992.65
2022-09-29T05:57:44.751Z,992.61
2022-09-29T05:58:44.682Z,992.64
2022-09-29T05:59:44.639Z,992.62
2022-09-29T06:00:44.616Z,992.61
2022-09-29T06:01:44.640Z,992.68
2022-09-29T06:02:44.529Z,992.67
2022-09-29T06:03:44.494Z,992.69
2022-09-29T06:04:44.458Z,992.68
2022-09-29T06:05:44.429Z,992.73
2022-09-29T06:06:44.385Z,992.72
2022-09-29T06:07:44.342Z,992.70
2022-09-29T06:08:44.304Z,992.72
2022-09-29T06:09:44.272Z,992.73
2022-09-29T06:10:44.232Z,992.71
2022-09-29T06:11:44.201Z,992.71
2022-09-29T06:12:44.155Z,992.71
2022-09-29T06:13:44.116Z,992.70
2022-09-29T06:14:44.120Z,992.72
2022-09-29T06:15:44.046Z,992.74
2022-09-29T06:16:44.051Z,992.72
2022-09-29T06:17:43.969Z,992.76
2022-09-29T06:18:43.931Z,992.75
2022-09-29T06:19:44.887Z,992.74
2022-09-29T06:20:43.855Z,992.79
2022-09-29T06:21:43.820Z,992.76
2022-09-29T06:22:43.784Z,992.77
2022-09-29T06:23:43.743Z,992.76
2022-09-29T06:24:43.716Z,992.78
2022-09-29T06:25:43.673Z,992.80
2022-09-29T06:26:43.635Z,992.82
2022-09-29T06:27:43.649Z,992.83
2022-09-29T06:28:43.559Z,992.82
2022-09-29T06:29:43.521Z,992.85
2022-09-29T06:30:43.482Z,992.86
2022-09-29T06:31:43.497Z,992.89
2022-09-29T06:32:43.408Z,992.88
2022-09-29T06:33:43.388Z,992.89
2022-09-29T06:34:43.336Z,992.87
2022-09-29T06:35:43.299Z,992.88
2022-09-29T06:36:43.273Z,992.90
2022-09-29T06:37:43.225Z,992.90
2022-09-29T06:38:43.188Z,992.90
2022-09-29T06:39:43.149Z,992.94
2022-09-29T06:40:43.135Z,992.89
2022-09-29T06:41:43.079Z,992.93
2022-09-29T06:42:43.055Z,992.91
2022-09-29T06:43:42.997Z,992.93
2022-09-29T06:44:42.963Z,992.93
2022-09-29T06:45:42.984Z,992.97
2022-09-29T06:46:42.891Z,992.98
2022-09-29T06:47:42.850Z,993.01
2022-09-29T06:48:42.866Z,993.01
2022-09-29T06:49:45.981Z,993.00
2022-09-29T06:50:42.746Z,992.98
2022-09-29T06:51:46.137Z,993.02
2022-09-29T06:52:45.466Z,993.01
2022-09-29T06:53:42.632Z,993.00
2022-09-29T06:54:42.593Z,992.97
2022-09-29T06:55:42.556Z,993.02
2022-09-29T06:56:42.607Z,993.06
2022-09-29T06:57:42.483Z,993.02
2022-09-29T06:58:42.444Z,993.03
2022-09-29T06:59:42.417Z,993.05
2022-09-29T07:00:44.842Z,993.04
2022-09-29T07:01:42.407Z,993.06
2022-09-29T07:02:42.298Z,993.08
2022-09-29T07:03:42.260Z,993.10
2022-09-29T07:04:42.221Z,993.08
2022-09-29T07:05:49.198Z,993.08
2022-09-29T07:06:42.179Z,993.09
2022-09-29T07:07:42.114Z,993.10
2022-09-29T07:08:42.074Z,993.11
2022-09-29T07:09:42.034Z,993.10
2022-09-29T07:10:42.002Z,993.15
2022-09-29T07:11:42.000Z,993.15
2022-09-29T07:12:41.928Z,993.14
2022-09-29T07:13:41.940Z,993.13
2022-09-29T07:14:41.854Z,993.14
2022-09-29T07:15:41.821Z,993.15
2022-09-29T07:16:41.869Z,993.12
2022-09-29T07:17:41.740Z,993.18
2022-09-29T07:18:41.705Z,993.17
2022-09-29T07:19:41.666Z,993.15
2022-09-29T07:20:41.632Z,993.16
2022-09-29T07:21:41.597Z,993.18
2022-09-29T07:22:41.559Z,993.16
2022-09-29T07:23:41.519Z,993.13
2022-09-29T07:24:41.481Z,993.11
2022-09-29T07:25:51.647Z,993.11
2022-09-29T07:26:41.418Z,993.14
2022-09-29T07:27:41.374Z,993.15
2022-09-29T07:28:41.344Z,993.16
2022-09-29T07:29:41.433Z,993.17
2022-09-29T07:30:41.323Z,993.16
2022-09-29T07:31:50.084Z,993.20
2022-09-29T07:32:42.351Z,993.22
2022-09-29T07:33:41.223Z,993.20
2022-09-29T07:34:41.116Z,993.20
2022-09-29T07:35:41.096Z,993.20
2022-09-29T07:36:41.228Z,993.21
2022-09-29T07:37:41.006Z,993.20
2022-09-29T07:38:40.974Z,993.22
2022-09-29T07:39:40.940Z,993.19
2022-09-29T07:40:40.926Z,993.23
2022-09-29T07:41:40.863Z,993.27
2022-09-29T07:42:40.829Z,993.25
2022-09-29T07:43:40.788Z,993.26
2022-09-29T07:44:41.071Z,993.25
2022-09-29T07:45:40.751Z,993.29
2022-09-29T07:46:40.700Z,993.28
2022-09-29T07:47:40.641Z,993.29
2022-09-29T07:48:40.602Z,993.29
2022-09-29T07:49:40.578Z,993.33
2022-09-29T07:50:40.530Z,993.33
2022-09-29T07:51:40.500Z,993.30
2022-09-29T07:52:40.455Z,993.32
2022-09-29T07:53:40.420Z,993.28
2022-09-29T07:54:40.389Z,993.33
2022-09-29T07:55:40.352Z,993.32
2022-09-29T07:56:40.312Z,993.31
2022-09-29T07:57:40.275Z,993.33
2022-09-29T07:58:40.240Z,993.37
2022-09-29T07:59:47.358Z,993.36
2022-09-29T08:00:40.340Z,993.34
2022-09-29T08:01:40.129Z,993.35
2022-09-29T08:02:40.163Z,993.35
2022-09-29T08:03:40.053Z,993.38
2022-09-29T08:04:40.020Z,993.36
2022-09-29T08:05:39.982Z,993.38
2022-09-29T08:06:39.948Z,993.40
2022-09-29T08:07:39.913Z,993.37
2022-09-29T08:08:40.361Z,993.36
2022-09-29T08:09:41.501Z,993.35
2022-09-29T08:10:50.617Z,993.37
2022-09-29T08:11:39.768Z,993.42
2022-09-29T08:12:44.072Z,993.38
2022-09-29T08:13:39.711Z,993.38
2022-09-29T08:14:43.950Z,993.37
2022-09-29T08:15:39.617Z,993.40
2022-09-29T08:16:39.641Z,993.41
2022-09-29T08:17:39.550Z,993.41
2022-09-29T08:18:42.983Z,993.40
2022-09-29T08:19:39.474Z,993.41
2022-09-29T08:20:39.439Z,993.44
2022-09-29T08:21:39.425Z,993.44
2022-09-29T08:22:39.369Z,993.45
2022-09-29T08:23:39.452Z,993.44
2022-09-29T08:24:39.296Z,993.43
2022-09-29T08:25:39.293Z,993.46
2022-09-29T08:26:43.825Z,993.46
2022-09-29T08:27:52.047Z,993.47
2022-09-29T08:28:39.161Z,993.49
2022-09-29T08:29:46.105Z,993.54
2022-09-29T08:30:39.081Z,993.53
2022-09-29T08:31:39.233Z,993.53
2022-09-29T08:32:39.006Z,993.56
2022-09-29T08:33:38.973Z,993.61
2022-09-29T08:34:38.938Z,993.60
2022-09-29T08:35:38.903Z,993.60
2022-09-29T08:36:38.861Z,993.65
2022-09-29T08:37:38.873Z,993.69
2022-09-29T08:38:38.794Z,993.68
2022-09-29T08:39:38.758Z,993.71
2022-09-29T08:40:38.774Z,993.70
2022-09-29T08:41:38.700Z,993.72
2022-09-29T08:42:46.509Z,993.71
2022-09-29T08:43:38.615Z,993.73
2022-09-29T08:44:39.485Z,993.71
2022-09-29T08:45:39.926Z,993.75
2022-09-29T08:46:38.572Z,993.74
2022-09-29T08:47:46.906Z,993.77
2022-09-29T08:48:47.128Z,993.76
2022-09-29T08:49:38.405Z,993.81
2022-09-29T08:50:38.368Z,993.79
2022-09-29T08:51:42.595Z,993.81
2022-09-29T08:52:49.892Z,993.77
2022-09-29T08:53:38.260Z,993.84
2022-09-29T08:54:39.669Z,993.84
2022-09-29T08:55:38.228Z,993.80
2022-09-29T08:56:38.154Z,993.85
2022-09-29T08:57:38.119Z,993.89
2022-09-29T08:58:38.089Z,993.84
2022-09-29T08:59:38.050Z,993.84
2022-09-29T09:00:38.082Z,993.85
2022-09-29T09:01:38.058Z,993.86
2022-09-29T09:02:38.069Z,993.86
2022-09-29T09:03:37.917Z,993.83
2022-09-29T09:04:37.873Z,993.84
2022-09-29T09:05:37.839Z,993.84
2022-09-29T09:06:37.803Z,993.84
2022-09-29T09:07:37.766Z,993.86
2022-09-29T09:08:37.765Z,993.86
2022-09-29T09:09:37.697Z,993.88
2022-09-29T09:10:37.683Z,993.89
2022-09-29T09:11:37.625Z,993.89
2022-09-29T09:12:37.588Z,993.88
2022-09-29T09:13:37.586Z,993.91
2022-09-29T09:14:37.520Z,993.91
2022-09-29T09:15:37.484Z,993.88
2022-09-29T09:16:37.468Z,993.92
2022-09-29T09:17:37.415Z,993.95
2022-09-29T09:18:37.378Z,993.97
2022-09-29T09:19:37.347Z,993.93
2022-09-29T09:20:37.310Z,993.91
2022-09-29T09:21:37.276Z,993.94
2022-09-29T09:23:37.205Z,993.95
2022-09-29T09:24:37.170Z,993.94
2022-09-29T09:25:37.136Z,993.89
2022-09-29T09:26:37.102Z,993.93
2022-09-29T09:27:37.069Z,993.89
2022-09-29T09:28:37.031Z,993.90
2022-09-29T09:29:38.010Z,993.91
2022-09-29T09:30:37.019Z,993.89
2022-09-29T09:31:36.928Z,993.92
2022-09-29T09:32:36.896Z,993.91
2022-09-29T09:33:36.880Z,993.91
2022-09-29T09:34:43.911Z,993.91
2022-09-29T09:35:38.700Z,993.93
2022-09-29T09:36:36.755Z,993.91
2022-09-29T09:37:36.721Z,993.86
2022-09-29T09:38:36.680Z,993.90
2022-09-29T09:39:36.649Z,993.91
2022-09-29T09:40:36.623Z,993.89
2022-09-29T09:41:36.577Z,993.91
2022-09-29T09:42:36.547Z,993.89
2022-09-29T09:43:36.528Z,993.92
2022-09-29T09:44:36.479Z,993.92
2022-09-29T09:45:36.484Z,993.87
2022-09-29T09:46:36.455Z,993.89
2022-09-29T09:47:36.376Z,993.89
2022-09-29T09:48:36.339Z,993.90
2022-09-29T09:49:36.302Z,993.93
2022-09-29T09:50:36.268Z,993.91
2022-09-29T09:51:36.278Z,993.95
2022-09-29T09:52:36.201Z,993.92
2022-09-29T09:53:36.170Z,993.88
2022-09-29T09:54:36.132Z,993.88
2022-09-29T09:55:36.118Z,993.86
2022-09-29T09:56:36.075Z,993.89
2022-09-29T09:57:36.033Z,993.89
2022-09-29T09:58:35.992Z,993.88
2022-09-29T09:59:35.971Z,993.88
2022-09-29T10:00:35.920Z,993.92
2022-09-29T10:01:35.943Z,993.91
2022-09-29T10:02:35.925Z,993.89
2022-09-29T10:03:35.821Z,993.91
2022-09-29T10:04:35.788Z,993.89
2022-09-29T10:05:35.754Z,993.90
2022-09-29T10:06:35.719Z,993.92
2022-09-29T10:07:35.685Z,993.91
2022-09-29T10:08:35.649Z,993.93
2022-09-29T10:09:35.660Z,993.93
2022-09-29T10:10:35.586Z,993.91
2022-09-29T10:11:35.550Z,993.95
2022-09-29T10:12:35.516Z,993.96
2022-09-29T10:13:35.493Z,993.96
2022-09-29T10:14:35.449Z,993.99
2022-09-29T10:15:35.418Z,994.02
2022-09-29T10:16:35.506Z,994.02
2022-09-29T10:17:35.349Z,994.00
2022-09-29T10:18:35.315Z,994.00
2022-09-29T10:19:35.280Z,993.98
2022-09-29T10:20:35.247Z,994.01
2022-09-29T10:21:35.219Z,994.02
2022-09-29T10:22:35.197Z,994.02
2022-09-29T10:23:35.150Z,994.04
2022-09-29T10:24:35.114Z,994.07
2022-09-29T10:25:35.084Z,994.05
2022-09-29T10:26:35.047Z,994.04
2022-09-29T10:27:35.015Z,994.05
2022-09-29T10:28:35.009Z,994.05
2022-09-29T10:29:34.954Z,994.07
2022-09-29T10:30:34.979Z,994.05
2022-09-29T10:31:34.886Z,994.07
2022-09-29T10:32:34.881Z,994.09
2022-09-29T10:33:34.822Z,994.07
2022-09-29T10:34:34.790Z,994.09
2022-09-29T10:35:34.759Z,994.11
2022-09-29T10:36:34.733Z,994.13
2022-09-29T10:37:34.693Z,994.12
2022-09-29T10:38:34.660Z,994.14
2022-09-29T10:39:34.631Z,994.19
2022-09-29T10:40:34.598Z,994.18
2022-09-29T10:41:34.566Z,994.16
2022-09-29T10:42:34.530Z,994.19
2022-09-29T10:43:34.497Z,994.18
2022-09-29T10:44:34.470Z,994.21
2022-09-29T10:45:34.436Z,994.22
2022-09-29T10:46:34.437Z,994.23
2022-09-29T10:47:34.372Z,994.24
2022-09-29T10:48:34.339Z,994.25
2022-09-29T10:49:34.315Z,994.21
2022-09-29T10:50:36.709Z,994.26
2022-09-29T10:51:34.247Z,994.21
2022-09-29T10:52:34.212Z,994.25
2022-09-29T10:53:34.181Z,994.24
2022-09-29T10:54:34.153Z,994.26
2022-09-29T10:55:34.120Z,994.27
2022-09-29T10:56:34.092Z,994.24
2022-09-29T10:57:34.086Z,994.25
2022-09-29T10:58:44.783Z,994.30
2022-09-29T10:59:34.000Z,994.24
2022-09-29T11:00:33.969Z,994.21
2022-09-29T11:01:33.961Z,994.26
2022-09-29T11:02:33.947Z,994.30
2022-09-29T11:03:33.873Z,994.33
2022-09-29T11:04:33.838Z,994.28
2022-09-29T11:05:33.808Z,994.30
2022-09-29T11:06:33.775Z,994.28
2022-09-29T11:07:33.746Z,994.27
2022-09-29T11:08:33.720Z,994.31
2022-09-29T11:09:33.765Z,994.34
2022-09-29T11:10:33.655Z,994.25
2022-09-29T11:11:33.624Z,994.27
2022-09-29T11:12:33.591Z,994.30
2022-09-29T11:13:33.573Z,994.29
2022-09-29T11:14:33.532Z,994.30
2022-09-29T11:15:33.499Z,994.28
2022-09-29T11:16:33.555Z,994.32
2022-09-29T11:17:33.443Z,994.34
2022-09-29T11:18:33.436Z,994.33
2022-09-29T11:19:33.377Z,994.34
2022-09-29T11:20:33.346Z,994.35
2022-09-29T11:21:33.315Z,994.32
2022-09-29T11:22:33.283Z,994.33
2022-09-29T11:23:33.256Z,994.37
2022-09-29T11:24:33.235Z,994.36
2022-09-29T11:25:33.194Z,994.35
2022-09-29T11:26:33.161Z,994.37
2022-09-29T11:27:33.133Z,994.31
2022-09-29T11:28:33.102Z,994.33
2022-09-29T11:29:33.070Z,994.32
2022-09-29T11:30:33.081Z,994.35
2022-09-29T11:31:33.013Z,994.36
2022-09-29T11:32:32.975Z,994.32
2022-09-29T11:33:32.943Z,994.34
2022-09-29T11:34:32.916Z,994.35
2022-09-29T11:35:32.881Z,994.38
2022-09-29T11:36:32.862Z,994.36
2022-09-29T11:37:34.997Z,994.38
2022-09-29T11:38:32.789Z,994.36
2022-09-29T11:39:32.765Z,994.45
2022-09-29T11:40:32.728Z,994.47
2022-09-29T11:41:32.713Z,994.47
2022-09-29T11:42:32.669Z,994.46
2022-09-29T11:43:32.633Z,994.48
2022-09-29T11:44:32.610Z,994.49
2022-09-29T11:45:32.580Z,994.51
2022-09-29T11:46:32.545Z,994.52
2022-09-29T11:47:32.517Z,994.52
2022-09-29T11:48:32.480Z,994.59
2022-09-29T11:49:32.458Z,994.46
2022-09-29T11:50:32.425Z,994.44
2022-09-29T11:51:32.394Z,994.52
2022-09-29T11:52:32.373Z,994.57
2022-09-29T11:53:32.331Z,994.53
2022-09-29T11:54:32.312Z,994.54
2022-09-29T11:55:32.271Z,994.56
2022-09-29T11:56:32.241Z,994.57
2022-09-29T11:57:32.211Z,994.55
2022-09-29T11:58:32.188Z,994.54
2022-09-29T11:59:32.176Z,994.57
2022-09-29T12:00:32.121Z,994.54
2022-09-29T12:01:32.092Z,994.56
2022-09-29T12:02:32.136Z,994.55
2022-09-29T12:03:32.042Z,994.59
2022-09-29T12:04:32.007Z,994.56
2022-09-29T12:05:31.975Z,994.54
2022-09-29T12:06:31.945Z,994.56
2022-09-29T12:07:31.913Z,994.53
2022-09-29T12:08:31.889Z,994.57
2022-09-29T12:09:31.920Z,994.56
2022-09-29T12:10:31.831Z,994.58
2022-09-29T12:11:50.976Z,994.57
2022-09-29T12:12:31.772Z,994.60
2022-09-29T12:13:31.747Z,994.61
2022-09-29T12:14:31.760Z,994.61
2022-09-29T12:15:32.215Z,994.64
2022-09-29T12:16:31.793Z,994.66
2022-09-29T12:17:31.632Z,994.65
2022-09-29T12:18:31.604Z,994.66
2022-09-29T12:19:31.573Z,994.62
2022-09-29T12:20:31.548Z,994.66
2022-09-29T12:21:31.522Z,994.64
2022-09-29T12:22:34.525Z,994.63
2022-09-29T12:23:31.488Z,994.61
2022-09-29T12:24:31.436Z,994.60
2022-09-29T12:25:31.411Z,994.58
2022-09-29T12:26:31.381Z,994.57
2022-09-29T12:27:31.355Z,994.54
2022-09-29T12:28:31.330Z,994.54
2022-09-29T12:29:31.344Z,994.57